Time;durP1;ratioP1;P1;durP2;ratioP2;P2;SDS_P1;SDS_P2;PMS_P1;PMS_P2;Temp;Humidity;BMP_temperature;BMP_pressure;BME280_temperature;BME280_humidity;BME280_pressure;Samples;Min_cycle;Max_cycle;Signal;HPM_P1;HPM_P2
2022/01/30 00:00:18;;;;;;;808.10;420.50;;;;;;;;;;4973455;28;20177;-78
2022/01/30 00:02:44;;;;;;;805.58;415.63;;;;;;;;;;4998350;28;20111;-78
2022/01/30 00:05:10;;;;;;;805.25;409.63;;;;;;;;;;4966462;28;20043;-78
2022/01/30 00:07:36;;;;;;;802.85;412.52;;;;;;;;;;4962968;28;20114;-78
2022/01/30 00:10:04;;;;;;;805.60;414.45;;;;;;;;;;4961850;28;20131;-77
2022/01/30 00:12:49;;;;;;;805.17;419.08;;;;;;;;;;4952704;28;20031;-77
2022/01/30 00:15:16;;;;;;;802.95;411.00;;;;;;;;;;4952886;28;20062;-76
2022/01/30 00:17:48;;;;;;;803.80;415.17;;;;;;;;;;4966631;28;20447;-77
2022/01/30 00:20:21;;;;;;;807.08;417.20;;;;;;;;;;4967002;28;20228;-77
2022/01/30 00:23:34;;;;;;;808.60;414.33;;;;;;;;;;4960934;28;20028;-76
2022/01/30 00:25:44;;;;;;;800.40;406.40;;;;;;;;;;4952416;28;20173;-78
2022/01/30 00:28:13;;;;;;;799.80;401.75;;;;;;;;;;4983501;28;20227;-78
2022/01/30 00:30:39;;;;;;;805.78;414.33;;;;;;;;;;4957254;28;20506;-77
2022/01/30 00:33:05;;;;;;;803.15;411.75;;;;;;;;;;4973233;28;20108;-78
2022/01/30 00:35:35;;;;;;;802.75;407.33;;;;;;;;;;4948459;28;20563;-77
2022/01/30 00:38:02;;;;;;;805.42;407.33;;;;;;;;;;4960402;28;20073;-78
2022/01/30 00:40:28;;;;;;;806.15;412.95;;;;;;;;;;4956766;28;20114;-78
2022/01/30 00:42:54;;;;;;;802.00;406.90;;;;;;;;;;4957637;28;20511;-79
2022/01/30 00:45:20;;;;;;;804.85;413.67;;;;;;;;;;4976202;28;20091;-78
2022/01/30 00:47:46;;;;;;;803.30;406.65;;;;;;;;;;4949858;28;22558;-77
2022/01/30 00:50:12;;;;;;;801.28;408.48;;;;;;;;;;4953235;28;20114;-78
2022/01/30 00:52:38;;;;;;;806.15;411.58;;;;;;;;;;4978841;28;20039;-78
2022/01/30 00:55:04;;;;;;;810.33;420.02;;;;;;;;;;4952789;28;20027;-78
2022/01/30 00:57:30;;;;;;;804.80;412.58;;;;;;;;;;4958302;28;20027;-78
2022/01/30 00:59:56;;;;;;;807.00;414.60;;;;;;;;;;4949683;28;20058;-76
2022/01/30 01:02:22;;;;;;;805.95;412.92;;;;;;;;;;4942957;28;20055;-78
2022/01/30 01:04:48;;;;;;;803.95;404.83;;;;;;;;;;4960958;28;20507;-77
2022/01/30 01:07:19;;;;;;;807.08;412.98;;;;;;;;;;4956971;28;20109;-77
2022/01/30 01:09:55;;;;;;;803.33;406.27;;;;;;;;;;4986780;28;20289;-77
2022/01/30 01:12:44;;;;;;;808.55;411.60;;;;;;;;;;4979669;28;20031;-77
2022/01/30 01:23:34;;;;;;;801.20;397.00;;;;;;;;;;4958815;28;20128;-77
2022/01/30 01:26:01;;;;;;;801.03;390.17;;;;;;;;;;4957097;28;20468;-77
2022/01/30 01:28:27;;;;;;;803.20;401.45;;;;;;;;;;4957922;28;20619;-77
2022/01/30 01:30:53;;;;;;;798.40;397.67;;;;;;;;;;4960962;28;20038;-77
2022/01/30 01:33:21;;;;;;;803.53;402.33;;;;;;;;;;4977871;28;20070;-78
2022/01/30 01:35:47;;;;;;;801.67;396.92;;;;;;;;;;4960976;28;20025;-78
2022/01/30 01:38:14;;;;;;;802.40;398.85;;;;;;;;;;4947431;28;20510;-78
2022/01/30 01:40:41;;;;;;;800.97;395.85;;;;;;;;;;4953186;28;20059;-78
2022/01/30 01:43:08;;;;;;;801.60;393.80;;;;;;;;;;4979254;28;20619;-77
2022/01/30 01:45:38;;;;;;;805.42;406.63;;;;;;;;;;4959130;28;20023;-78
2022/01/30 01:48:10;;;;;;;802.25;399.48;;;;;;;;;;4953005;28;20024;-78
2022/01/30 01:50:38;;;;;;;799.60;392.58;;;;;;;;;;4954985;28;20023;-78
2022/01/30 01:53:09;;;;;;;802.08;402.98;;;;;;;;;;4960799;28;20029;-77
2022/01/30 01:55:36;;;;;;;803.03;401.08;;;;;;;;;;4948542;28;20187;-78
2022/01/30 01:58:03;;;;;;;800.58;396.67;;;;;;;;;;4963283;28;20126;-78
2022/01/30 02:00:29;;;;;;;805.05;408.27;;;;;;;;;;4978994;28;20035;-78
2022/01/30 02:02:55;;;;;;;801.80;400.33;;;;;;;;;;4976966;28;20467;-78
2022/01/30 02:05:23;;;;;;;800.25;397.33;;;;;;;;;;4976237;28;20024;-78
2022/01/30 02:27:25;;;;;;;797.55;384.05;;;;;;;;;;4941267;28;20035;-77
2022/01/30 02:29:52;;;;;;;799.33;388.00;;;;;;;;;;4965423;28;20027;-78
2022/01/30 02:32:18;;;;;;;801.83;395.38;;;;;;;;;;4971923;28;20023;-78
2022/01/30 02:34:45;;;;;;;803.17;394.52;;;;;;;;;;4985931;28;20066;-78
2022/01/30 02:37:13;;;;;;;801.30;391.05;;;;;;;;;;4959403;28;20494;-77
2022/01/30 02:39:39;;;;;;;800.20;389.83;;;;;;;;;;4959943;28;20036;-77
2022/01/30 02:42:05;;;;;;;805.38;401.63;;;;;;;;;;4962211;28;20024;-77
2022/01/30 02:44:39;;;;;;;799.63;392.95;;;;;;;;;;4944047;28;20131;-77
2022/01/30 02:47:06;;;;;;;800.85;390.08;;;;;;;;;;4979500;28;20046;-77
2022/01/30 02:50:07;;;;;;;803.58;395.42;;;;;;;;;;4983622;28;20474;-77
2022/01/30 02:52:31;;;;;;;803.22;381.73;;;;;;;;;;4942548;28;20039;-77
2022/01/30 02:54:57;;;;;;;800.70;390.95;;;;;;;;;;4980610;28;20035;-78
2022/01/30 02:57:23;;;;;;;803.78;394.40;;;;;;;;;;4966509;28;20102;-77
2022/01/30 02:59:50;;;;;;;803.15;396.05;;;;;;;;;;4953974;28;20035;-77
2022/01/30 03:02:16;;;;;;;803.10;397.38;;;;;;;;;;4984289;28;20021;-78
2022/01/30 03:04:42;;;;;;;802.88;393.08;;;;;;;;;;4947463;28;20532;-78
2022/01/30 03:07:08;;;;;;;811.05;390.70;;;;;;;;;;4946640;28;20073;-77
2022/01/30 03:09:34;;;;;;;801.05;390.65;;;;;;;;;;4971910;28;20397;-79
2022/01/30 03:12:00;;;;;;;802.30;395.17;;;;;;;;;;4937004;28;20247;-77
2022/01/30 03:14:26;;;;;;;803.08;394.38;;;;;;;;;;4971031;28;20053;-77
2022/01/30 03:16:53;;;;;;;802.53;393.60;;;;;;;;;;4955526;28;20661;-77
2022/01/30 03:19:19;;;;;;;805.30;400.30;;;;;;;;;;4954386;28;20063;-78
2022/01/30 03:21:45;;;;;;;803.22;397.38;;;;;;;;;;4969834;28;20085;-78
2022/01/30 03:24:11;;;;;;;801.33;389.48;;;;;;;;;;4947979;28;20059;-78
2022/01/30 03:26:40;;;;;;;801.00;392.90;;;;;;;;;;4936488;28;20040;-76
2022/01/30 03:29:06;;;;;;;801.05;394.15;;;;;;;;;;4957229;28;20046;-77
2022/01/30 03:31:37;;;;;;;802.47;393.65;;;;;;;;;;4945272;28;20042;-77
2022/01/30 03:34:03;;;;;;;800.92;390.67;;;;;;;;;;4957587;28;20077;-77
2022/01/30 03:36:29;;;;;;;803.63;394.70;;;;;;;;;;4954592;28;20032;-78
2022/01/30 03:38:55;;;;;;;817.67;395.48;;;;;;;;;;4979185;28;20372;-77
2022/01/30 03:41:21;;;;;;;803.75;397.92;;;;;;;;;;4947899;28;20025;-78
2022/01/30 03:43:47;;;;;;;804.53;396.98;;;;;;;;;;4951582;28;20044;-77
2022/01/30 03:46:13;;;;;;;802.08;396.67;;;;;;;;;;4964872;28;20027;-77
2022/01/30 03:48:39;;;;;;;805.03;396.38;;;;;;;;;;4959801;28;20067;-77
2022/01/30 03:51:05;;;;;;;801.17;394.10;;;;;;;;;;4972971;28;20421;-77
2022/01/30 03:53:32;;;;;;;804.35;399.70;;;;;;;;;;4952429;28;20041;-78
2022/01/30 03:55:58;;;;;;;804.78;397.48;;;;;;;;;;4957769;28;20028;-78
2022/01/30 03:58:24;;;;;;;800.25;389.40;;;;;;;;;;4995060;28;20056;-76
2022/01/30 04:00:50;;;;;;;801.03;397.00;;;;;;;;;;4963693;28;20031;-77
2022/01/30 04:03:16;;;;;;;800.78;394.95;;;;;;;;;;5012107;28;20036;-78
2022/01/30 04:05:42;;;;;;;806.03;405.00;;;;;;;;;;4963961;28;20031;-78
2022/01/30 04:08:08;;;;;;;800.75;384.23;;;;;;;;;;4971723;28;20020;-77
2022/01/30 04:10:34;;;;;;;801.85;388.80;;;;;;;;;;4961078;28;20023;-77
2022/01/30 04:13:00;;;;;;;800.83;384.65;;;;;;;;;;4962847;28;20031;-77
2022/01/30 04:15:26;;;;;;;798.17;386.65;;;;;;;;;;4963381;28;20456;-78
2022/01/30 04:17:52;;;;;;;799.42;384.60;;;;;;;;;;4959233;28;20036;-76
2022/01/30 04:20:19;;;;;;;798.95;388.58;;;;;;;;;;4952770;28;20470;-77
2022/01/30 04:22:45;;;;;;;798.42;383.30;;;;;;;;;;4987044;28;20726;-78
2022/01/30 04:25:11;;;;;;;802.30;388.50;;;;;;;;;;4942244;28;20467;-77
2022/01/30 04:27:37;;;;;;;797.83;380.30;;;;;;;;;;4957591;28;20399;-77
2022/01/30 04:30:04;;;;;;;802.58;392.48;;;;;;;;;;4955131;28;20415;-77
2022/01/30 04:32:33;;;;;;;797.45;379.00;;;;;;;;;;4974053;28;20089;-77
2022/01/30 04:35:00;;;;;;;800.47;387.30;;;;;;;;;;4960539;28;20027;-77
2022/01/30 05:01:56;;;;;;;816.22;402.10;;;;;;;;;;4956936;28;20033;-77
2022/01/30 05:04:29;;;;;;;804.92;396.67;;;;;;;;;;4948037;28;20062;-78
2022/01/30 05:09:25;;;;;;;810.03;399.13;;;;;;;;;;4965917;28;20521;-78
2022/01/30 05:11:52;;;;;;;805.63;399.40;;;;;;;;;;4973659;28;20115;-78
2022/01/30 05:14:22;;;;;;;805.13;403.60;;;;;;;;;;4967366;28;20070;-78
2022/01/30 05:16:48;;;;;;;801.88;393.38;;;;;;;;;;4952955;28;20121;-78
2022/01/30 05:19:14;;;;;;;801.17;390.02;;;;;;;;;;4943882;28;20028;-76
2022/01/30 05:21:40;;;;;;;800.97;392.00;;;;;;;;;;4963212;28;20410;-77
2022/01/30 05:24:07;;;;;;;799.92;389.58;;;;;;;;;;4962258;28;20173;-77
2022/01/30 05:26:33;;;;;;;802.58;397.23;;;;;;;;;;4969883;28;20030;-77
2022/01/30 05:28:59;;;;;;;798.60;384.83;;;;;;;;;;4953358;28;20027;-77
2022/01/30 05:31:25;;;;;;;803.40;390.80;;;;;;;;;;4961629;28;20021;-78
2022/01/30 05:33:51;;;;;;;803.25;389.98;;;;;;;;;;4944765;29;20465;-77
2022/01/30 05:36:18;;;;;;;798.78;383.40;;;;;;;;;;4968341;28;20031;-78
2022/01/30 05:38:45;;;;;;;810.72;383.42;;;;;;;;;;4966209;28;20038;-78
2022/01/30 05:41:11;;;;;;;805.03;397.42;;;;;;;;;;4960978;28;20406;-78
2022/01/30 05:43:38;;;;;;;804.28;391.30;;;;;;;;;;4965691;28;20110;-78
2022/01/30 05:46:12;;;;;;;803.33;393.25;;;;;;;;;;4944760;28;20058;-77
2022/01/30 05:48:38;;;;;;;799.13;387.80;;;;;;;;;;4983713;28;20046;-78
2022/01/30 05:51:05;;;;;;;798.55;388.20;;;;;;;;;;4971120;28;20043;-78
2022/01/30 05:53:31;;;;;;;798.97;383.35;;;;;;;;;;4960920;28;20036;-77
2022/01/30 05:55:57;;;;;;;801.03;388.05;;;;;;;;;;4946734;28;20033;-78
2022/01/30 05:58:23;;;;;;;802.88;385.92;;;;;;;;;;4946757;28;20039;-77
2022/01/30 06:00:49;;;;;;;801.00;384.88;;;;;;;;;;4994134;28;20036;-77
2022/01/30 06:03:15;;;;;;;807.40;388.13;;;;;;;;;;4949438;28;20255;-77
2022/01/30 06:05:45;;;;;;;804.97;386.98;;;;;;;;;;4979936;28;20038;-77
2022/01/30 06:08:15;;;;;;;802.37;389.97;;;;;;;;;;4941208;28;20395;-77
2022/01/30 06:10:41;;;;;;;800.20;382.55;;;;;;;;;;4942229;28;20262;-78
2022/01/30 06:13:07;;;;;;;798.80;379.33;;;;;;;;;;4958482;28;20027;-77
2022/01/30 06:15:33;;;;;;;799.30;383.23;;;;;;;;;;4950187;28;20058;-77
2022/01/30 06:17:58;;;;;;;799.08;380.55;;;;;;;;;;4953021;28;20266;-78
2022/01/30 06:20:24;;;;;;;799.05;381.08;;;;;;;;;;4962398;28;20028;-77
2022/01/30 06:22:50;;;;;;;802.92;386.30;;;;;;;;;;4966797;28;20555;-77
2022/01/30 06:25:16;;;;;;;804.25;379.92;;;;;;;;;;4955609;28;20391;-77
2022/01/30 06:27:42;;;;;;;803.00;384.20;;;;;;;;;;4944773;28;20031;-77
2022/01/30 06:30:09;;;;;;;798.00;378.40;;;;;;;;;;4997958;28;20035;-78
2022/01/30 06:32:35;;;;;;;801.78;378.63;;;;;;;;;;4960392;28;20115;-78
2022/01/30 06:35:01;;;;;;;801.63;385.33;;;;;;;;;;4962370;28;20130;-77
2022/01/30 06:37:27;;;;;;;800.28;378.75;;;;;;;;;;4974700;28;20027;-78
2022/01/30 06:39:53;;;;;;;804.92;385.92;;;;;;;;;;4953493;28;20035;-77
2022/01/30 06:42:19;;;;;;;804.97;382.55;;;;;;;;;;4971427;28;20031;-77
2022/01/30 06:44:45;;;;;;;801.55;384.85;;;;;;;;;;4957226;28;20028;-78
2022/01/30 06:47:12;;;;;;;801.53;383.15;;;;;;;;;;4961571;28;20130;-77
2022/01/30 06:49:38;;;;;;;799.85;380.95;;;;;;;;;;4973228;28;20062;-78
2022/01/30 06:52:06;;;;;;;800.90;383.25;;;;;;;;;;4953991;28;20035;-78
2022/01/30 06:54:32;;;;;;;800.63;384.77;;;;;;;;;;4958681;28;20468;-77
2022/01/30 06:56:58;;;;;;;798.58;381.25;;;;;;;;;;4964823;28;20428;-78
2022/01/30 06:59:24;;;;;;;801.97;382.35;;;;;;;;;;4944096;29;20038;-77
2022/01/30 07:01:52;;;;;;;802.00;381.98;;;;;;;;;;4942523;28;20635;-77
2022/01/30 07:04:19;;;;;;;800.80;381.17;;;;;;;;;;4962191;28;20058;-77
2022/01/30 07:06:50;;;;;;;798.15;378.33;;;;;;;;;;4995061;28;20017;-78
2022/01/30 07:09:17;;;;;;;798.88;377.55;;;;;;;;;;4950229;28;20349;-78
2022/01/30 07:11:43;;;;;;;797.05;374.42;;;;;;;;;;4944307;28;20034;-77
2022/01/30 07:14:09;;;;;;;799.00;376.30;;;;;;;;;;4969908;28;20471;-78
2022/01/30 07:16:35;;;;;;;816.25;378.35;;;;;;;;;;4958756;28;20482;-78
2022/01/30 07:19:01;;;;;;;798.33;377.73;;;;;;;;;;4968971;28;20282;-77
2022/01/30 07:21:27;;;;;;;801.58;381.20;;;;;;;;;;4948429;28;20075;-77
2022/01/30 07:23:53;;;;;;;800.08;380.52;;;;;;;;;;4962685;28;20113;-77
2022/01/30 07:26:19;;;;;;;799.05;381.60;;;;;;;;;;4965241;28;20582;-77
2022/01/30 07:28:45;;;;;;;802.83;383.65;;;;;;;;;;4960079;28;20046;-78
2022/01/30 07:31:11;;;;;;;801.63;384.15;;;;;;;;;;4978886;28;20039;-78
2022/01/30 07:33:40;;;;;;;801.88;386.52;;;;;;;;;;4972353;28;20044;-78
2022/01/30 07:36:06;;;;;;;798.10;380.52;;;;;;;;;;4956075;28;20118;-77
2022/01/30 07:38:32;;;;;;;799.65;385.10;;;;;;;;;;4958091;28;20029;-77
2022/01/30 07:40:58;;;;;;;836.40;391.13;;;;;;;;;;4940057;28;20032;-77
2022/01/30 07:43:24;;;;;;;801.45;392.55;;;;;;;;;;4986222;28;20093;-78
2022/01/30 07:45:50;;;;;;;812.08;392.15;;;;;;;;;;4959232;28;20036;-77
2022/01/30 07:48:16;;;;;;;801.88;387.58;;;;;;;;;;4986718;28;20142;-77
2022/01/30 07:50:42;;;;;;;805.05;389.27;;;;;;;;;;4977858;28;20025;-77
2022/01/30 07:53:08;;;;;;;801.33;389.08;;;;;;;;;;4957326;28;20028;-77
2022/01/30 07:55:34;;;;;;;834.20;394.65;;;;;;;;;;4953672;28;20028;-77
2022/01/30 07:58:00;;;;;;;801.67;391.25;;;;;;;;;;4952542;28;20465;-77
2022/01/30 08:00:26;;;;;;;802.95;390.80;;;;;;;;;;4965547;28;20619;-77
2022/01/30 08:02:52;;;;;;;803.90;395.45;;;;;;;;;;4960067;28;20042;-78
2022/01/30 08:05:18;;;;;;;809.97;395.83;;;;;;;;;;4998508;28;20120;-78
2022/01/30 08:07:44;;;;;;;805.25;400.23;;;;;;;;;;4946715;28;20472;-77
2022/01/30 08:10:10;;;;;;;805.75;400.42;;;;;;;;;;4966367;28;20050;-78
2022/01/30 08:12:38;;;;;;;804.67;398.60;;;;;;;;;;4965114;28;20031;-78
2022/01/30 08:15:04;;;;;;;803.90;395.73;;;;;;;;;;4991235;28;20037;-78
2022/01/30 08:17:32;;;;;;;807.20;401.40;;;;;;;;;;4973616;28;20025;-77
2022/01/30 08:19:58;;;;;;;806.17;402.30;;;;;;;;;;5004907;28;20030;-78
2022/01/30 08:22:28;;;;;;;804.90;399.90;;;;;;;;;;4973473;28;20125;-77
2022/01/30 08:24:54;;;;;;;807.25;403.13;;;;;;;;;;4975657;28;20507;-78
2022/01/30 08:27:20;;;;;;;807.47;406.10;;;;;;;;;;4943958;28;20336;-78
2022/01/30 08:29:46;;;;;;;809.90;411.65;;;;;;;;;;4943830;28;20035;-78
2022/01/30 08:32:12;;;;;;;808.85;405.10;;;;;;;;;;4972809;28;20027;-78
2022/01/30 08:34:41;;;;;;;809.05;408.55;;;;;;;;;;4955965;28;20064;-77
2022/01/30 08:37:07;;;;;;;808.55;410.08;;;;;;;;;;4952423;28;20032;-77
2022/01/30 08:39:34;;;;;;;813.17;424.45;;;;;;;;;;4983936;28;20017;-77
2022/01/30 08:42:00;;;;;;;817.33;442.77;;;;;;;;;;4948444;28;20483;-78
2022/01/30 08:44:26;;;;;;;823.47;456.77;;;;;;;;;;4987175;28;20065;-78
2022/01/30 08:46:52;;;;;;;823.03;467.20;;;;;;;;;;4999617;28;20480;-77
2022/01/30 08:49:18;;;;;;;823.40;469.17;;;;;;;;;;4950860;28;20077;-77
2022/01/30 08:51:44;;;;;;;824.60;471.67;;;;;;;;;;4966514;28;20039;-78
2022/01/30 08:54:10;;;;;;;828.38;490.58;;;;;;;;;;4963995;28;20031;-78
2022/01/30 08:56:36;;;;;;;827.95;484.38;;;;;;;;;;4979317;28;20073;-77
2022/01/30 08:59:02;;;;;;;824.85;483.88;;;;;;;;;;5001612;28;20025;-78
2022/01/30 09:01:32;;;;;;;826.10;480.83;;;;;;;;;;4973597;28;20053;-77
2022/01/30 09:03:59;;;;;;;824.80;473.10;;;;;;;;;;4955674;28;20051;-78
2022/01/30 09:06:25;;;;;;;822.03;468.02;;;;;;;;;;4983723;28;20185;-77
2022/01/30 09:08:51;;;;;;;822.40;461.70;;;;;;;;;;4984371;28;20526;-78
2022/01/30 09:11:17;;;;;;;825.25;463.70;;;;;;;;;;4963710;28;20058;-78
2022/01/30 09:13:43;;;;;;;826.30;462.08;;;;;;;;;;4979532;28;20111;-77
2022/01/30 09:16:09;;;;;;;821.65;456.25;;;;;;;;;;4966029;28;20474;-78
2022/01/30 09:18:38;;;;;;;824.80;465.33;;;;;;;;;;4948994;28;20475;-77
2022/01/30 09:21:04;;;;;;;823.63;459.00;;;;;;;;;;4966384;28;20024;-77
2022/01/30 09:23:30;;;;;;;818.05;451.23;;;;;;;;;;4980860;28;20224;-78
2022/01/30 09:25:56;;;;;;;820.53;449.85;;;;;;;;;;4979180;28;20114;-78
2022/01/30 09:28:22;;;;;;;822.47;456.83;;;;;;;;;;4970250;28;20368;-78
2022/01/30 09:30:48;;;;;;;826.10;468.92;;;;;;;;;;4975332;28;20599;-78
2022/01/30 09:33:13;;;;;;;826.50;477.77;;;;;;;;;;4950700;28;20027;-78
2022/01/30 09:35:40;;;;;;;822.63;471.60;;;;;;;;;;4981097;28;20426;-78
2022/01/30 09:38:06;;;;;;;820.80;457.40;;;;;;;;;;4975460;28;20494;-78
2022/01/30 09:40:32;;;;;;;835.28;475.33;;;;;;;;;;4963268;28;20035;-78
2022/01/30 09:42:58;;;;;;;818.58;457.08;;;;;;;;;;4979681;28;20739;-78
2022/01/30 09:45:24;;;;;;;823.40;464.13;;;;;;;;;;4982125;28;20411;-77
2022/01/30 09:47:50;;;;;;;819.03;445.00;;;;;;;;;;4960195;28;20050;-78
2022/01/30 09:50:17;;;;;;;821.08;456.35;;;;;;;;;;4959723;28;20038;-77
2022/01/30 09:52:43;;;;;;;823.28;456.63;;;;;;;;;;5001353;28;20034;-78
2022/01/30 09:55:10;;;;;;;823.35;455.90;;;;;;;;;;4968065;28;20033;-77
2022/01/30 09:57:37;;;;;;;829.83;450.98;;;;;;;;;;4970273;28;20393;-78
2022/01/30 10:00:04;;;;;;;824.45;456.88;;;;;;;;;;4944145;28;20451;-78
2022/01/30 10:02:30;;;;;;;821.70;458.08;;;;;;;;;;5022934;28;20031;-77
2022/01/30 10:04:56;;;;;;;824.88;469.65;;;;;;;;;;4976914;28;20105;-78
2022/01/30 10:07:26;;;;;;;824.42;466.25;;;;;;;;;;4966751;28;20067;-77
2022/01/30 10:09:52;;;;;;;603.17;342.75;;;;;;;;;;4953546;28;20029;-77
2022/01/30 10:12:24;;;;;;;820.83;454.17;;;;;;;;;;4951312;28;20049;-78
2022/01/30 10:14:59;;;;;;;823.35;465.45;;;;;;;;;;4974430;28;20150;-77
2022/01/30 10:17:25;;;;;;;823.13;458.23;;;;;;;;;;4975505;28;20031;-78
2022/01/30 10:19:59;;;;;;;823.00;463.08;;;;;;;;;;4982407;28;20554;-77
2022/01/30 10:22:25;;;;;;;823.95;465.98;;;;;;;;;;4980582;28;20498;-78
2022/01/30 10:24:52;;;;;;;827.53;476.83;;;;;;;;;;4949275;28;20035;-77
2022/01/30 10:27:19;;;;;;;829.10;480.70;;;;;;;;;;4951892;28;20506;-77
2022/01/30 10:29:45;;;;;;;831.25;494.00;;;;;;;;;;4993387;28;20031;-78
2022/01/30 10:32:11;;;;;;;834.03;505.27;;;;;;;;;;4976267;28;20024;-78
2022/01/30 10:34:38;;;;;;;836.95;513.65;;;;;;;;;;4965294;28;20113;-78
2022/01/30 10:37:22;;;;;;;833.33;505.35;;;;;;;;;;4959644;28;20578;-78
2022/01/30 10:40:05;;;;;;;832.55;498.77;;;;;;;;;;4962225;28;20475;-78
2022/01/30 10:42:50;;;;;;;830.05;494.67;;;;;;;;;;4982192;28;20330;-77
2022/01/30 10:45:19;;;;;;;825.67;485.95;;;;;;;;;;4964875;28;20535;-77
2022/01/30 10:47:46;;;;;;;836.35;506.90;;;;;;;;;;4962575;28;20343;-77
2022/01/30 10:50:13;;;;;;;831.85;495.88;;;;;;;;;;4996130;28;20270;-77
2022/01/30 10:52:49;;;;;;;832.45;503.13;;;;;;;;;;4950378;28;20039;-77
2022/01/30 10:55:15;;;;;;;828.05;493.05;;;;;;;;;;4973809;28;20657;-77
2022/01/30 10:57:44;;;;;;;836.45;519.28;;;;;;;;;;4968339;28;20471;-78
2022/01/30 11:00:10;;;;;;;837.65;519.67;;;;;;;;;;5025371;28;20363;-78
2022/01/30 11:02:41;;;;;;;847.20;529.25;;;;;;;;;;4978115;28;20185;-78
2022/01/30 11:05:11;;;;;;;839.17;527.03;;;;;;;;;;4976668;28;20596;-78
2022/01/30 11:07:37;;;;;;;833.05;516.42;;;;;;;;;;4999475;28;20029;-77
2022/01/30 11:10:17;;;;;;;834.50;512.40;;;;;;;;;;4975074;28;20033;-78
2022/01/30 11:12:56;;;;;;;827.42;490.40;;;;;;;;;;4967439;28;20136;-77
2022/01/30 11:15:35;;;;;;;832.70;500.23;;;;;;;;;;4961332;28;20045;-78
2022/01/30 11:18:05;;;;;;;830.53;496.40;;;;;;;;;;4981920;28;20110;-77
2022/01/30 11:20:31;;;;;;;834.65;505.50;;;;;;;;;;4950913;28;20110;-77
2022/01/30 11:23:00;;;;;;;827.00;491.35;;;;;;;;;;4978638;28;20035;-76
2022/01/30 11:25:27;;;;;;;827.58;491.23;;;;;;;;;;4965721;28;20057;-77
2022/01/30 11:27:55;;;;;;;831.03;496.75;;;;;;;;;;4979366;28;20119;-77
2022/01/30 11:30:21;;;;;;;828.35;481.38;;;;;;;;;;4954185;28;20030;-78
2022/01/30 11:32:47;;;;;;;830.30;492.15;;;;;;;;;;4968472;28;20024;-78
2022/01/30 11:35:13;;;;;;;835.53;499.83;;;;;;;;;;4967894;28;20565;-78
2022/01/30 11:37:40;;;;;;;831.13;492.52;;;;;;;;;;4985879;28;20024;-78
2022/01/30 11:40:14;;;;;;;834.92;507.15;;;;;;;;;;4990412;28;20034;-77
2022/01/30 11:42:41;;;;;;;834.35;506.35;;;;;;;;;;4969752;28;20524;-78
2022/01/30 11:45:07;;;;;;;834.13;508.25;;;;;;;;;;4951670;28;20035;-78
2022/01/30 11:47:48;;;;;;;829.22;499.17;;;;;;;;;;4956417;28;20070;-77
2022/01/30 11:50:16;;;;;;;831.35;500.00;;;;;;;;;;4983221;28;20035;-78
2022/01/30 11:52:52;;;;;;;829.80;493.83;;;;;;;;;;4966454;28;20031;-78
2022/01/30 11:55:36;;;;;;;824.00;477.35;;;;;;;;;;4982266;28;20127;-78
2022/01/30 11:58:02;;;;;;;826.45;482.65;;;;;;;;;;4969168;28;20035;-78
2022/01/30 12:00:36;;;;;;;827.72;487.73;;;;;;;;;;4969470;28;20075;-77
2022/01/30 12:03:21;;;;;;;827.63;481.17;;;;;;;;;;5001920;28;20055;-77
2022/01/30 12:05:47;;;;;;;831.63;481.60;;;;;;;;;;4963386;28;20039;-77
2022/01/30 12:08:32;;;;;;;823.70;472.45;;;;;;;;;;4958114;28;20027;-78
2022/01/30 12:10:58;;;;;;;826.22;477.20;;;;;;;;;;4950362;28;20035;-77
2022/01/30 12:13:43;;;;;;;827.58;477.70;;;;;;;;;;4984706;28;20534;-78
2022/01/30 12:16:29;;;;;;;845.97;479.00;;;;;;;;;;5001287;28;20475;-79
2022/01/30 12:18:55;;;;;;;829.00;488.77;;;;;;;;;;4996588;28;20423;-78
2022/01/30 12:21:27;;;;;;;826.80;481.60;;;;;;;;;;4952908;28;20051;-77
2022/01/30 12:23:53;;;;;;;830.35;476.48;;;;;;;;;;4957761;28;20039;-77
2022/01/30 12:26:19;;;;;;;822.78;469.45;;;;;;;;;;4953917;28;20031;-78
2022/01/30 12:28:46;;;;;;;826.55;474.45;;;;;;;;;;4967581;28;20042;-78
2022/01/30 12:31:30;;;;;;;823.15;468.30;;;;;;;;;;4984129;28;20029;-77
2022/01/30 12:34:10;;;;;;;823.63;463.25;;;;;;;;;;4984029;28;20060;-77
2022/01/30 12:36:40;;;;;;;825.92;474.70;;;;;;;;;;4959277;28;20042;-77
2022/01/30 12:39:09;;;;;;;829.08;477.83;;;;;;;;;;4964476;28;20036;-77
2022/01/30 12:41:36;;;;;;;830.10;486.17;;;;;;;;;;4970560;28;20059;-77
2022/01/30 12:44:06;;;;;;;830.10;485.50;;;;;;;;;;4988349;28;20027;-77
2022/01/30 12:46:35;;;;;;;834.78;506.02;;;;;;;;;;4966217;28;20039;-77
2022/01/30 12:49:03;;;;;;;833.25;491.88;;;;;;;;;;4982508;28;20254;-77
2022/01/30 12:51:29;;;;;;;834.67;502.48;;;;;;;;;;4972537;28;20028;-77
2022/01/30 12:53:56;;;;;;;827.15;481.70;;;;;;;;;;4984669;28;20123;-78
2022/01/30 12:56:23;;;;;;;826.80;483.13;;;;;;;;;;4960618;28;20023;-77
2022/01/30 12:58:52;;;;;;;829.30;480.63;;;;;;;;;;4971832;28;20110;-78
2022/01/30 13:01:18;;;;;;;825.58;468.95;;;;;;;;;;4973500;28;20106;-78
2022/01/30 13:03:44;;;;;;;823.85;467.50;;;;;;;;;;4941483;28;20037;-77
2022/01/30 13:06:11;;;;;;;826.83;474.42;;;;;;;;;;4964890;28;20076;-77
2022/01/30 13:08:46;;;;;;;827.70;476.33;;;;;;;;;;4965700;28;20389;-77
2022/01/30 13:11:19;;;;;;;825.88;467.05;;;;;;;;;;4980064;28;20031;-77
2022/01/30 13:14:00;;;;;;;821.88;457.90;;;;;;;;;;4972477;28;20665;-77
2022/01/30 13:16:29;;;;;;;824.72;463.83;;;;;;;;;;4961671;28;20658;-77
2022/01/30 13:18:55;;;;;;;827.28;472.60;;;;;;;;;;4963111;28;20502;-77
2022/01/30 13:21:22;;;;;;;825.13;464.63;;;;;;;;;;4948055;28;20035;-77
2022/01/30 13:23:48;;;;;;;825.70;474.83;;;;;;;;;;4955965;28;20394;-77
2022/01/30 13:26:33;;;;;;;828.17;472.20;;;;;;;;;;4964052;28;20545;-77
2022/01/30 13:29:00;;;;;;;829.58;479.35;;;;;;;;;;4984577;28;20496;-77
2022/01/30 13:31:26;;;;;;;825.63;472.30;;;;;;;;;;5048155;28;20028;-77
2022/01/30 13:34:08;;;;;;;831.08;487.25;;;;;;;;;;5034412;28;20128;-77
2022/01/30 13:36:35;;;;;;;827.72;480.35;;;;;;;;;;4984393;28;20039;-77
2022/01/30 13:39:06;;;;;;;831.72;494.55;;;;;;;;;;4946623;29;20453;-78
2022/01/30 13:41:43;;;;;;;825.88;474.67;;;;;;;;;;4967803;28;20034;-77
2022/01/30 13:44:21;;;;;;;827.17;480.10;;;;;;;;;;4974916;28;20027;-77
2022/01/30 13:47:00;;;;;;;825.97;473.85;;;;;;;;;;4975943;28;20515;-77
2022/01/30 13:49:27;;;;;;;827.92;467.08;;;;;;;;;;4979078;28;20043;-78
2022/01/30 13:52:10;;;;;;;825.42;465.98;;;;;;;;;;4945410;28;20165;-77
2022/01/30 13:54:39;;;;;;;823.92;461.33;;;;;;;;;;4978340;28;20538;-77
2022/01/30 13:57:09;;;;;;;829.65;456.85;;;;;;;;;;4960063;28;20035;-77
2022/01/30 13:59:36;;;;;;;824.13;461.53;;;;;;;;;;4979121;28;20688;-78
2022/01/30 14:02:03;;;;;;;826.45;459.80;;;;;;;;;;4960300;28;20288;-77
2022/01/30 14:04:32;;;;;;;827.15;469.27;;;;;;;;;;4976297;28;20558;-78
2022/01/30 14:07:00;;;;;;;820.33;455.50;;;;;;;;;;4954791;28;20792;-77
2022/01/30 14:09:36;;;;;;;825.17;458.17;;;;;;;;;;4961426;28;20031;-77
2022/01/30 14:12:03;;;;;;;821.85;459.00;;;;;;;;;;4990962;28;20021;-77
2022/01/30 14:14:29;;;;;;;822.40;460.48;;;;;;;;;;4979330;28;20035;-77
2022/01/30 14:17:00;;;;;;;822.05;461.13;;;;;;;;;;4981268;28;20532;-77
2022/01/30 14:19:42;;;;;;;824.58;464.95;;;;;;;;;;4980085;28;20027;-77
2022/01/30 14:22:20;;;;;;;818.10;444.92;;;;;;;;;;4979484;28;20456;-77
2022/01/30 14:24:48;;;;;;;819.17;452.33;;;;;;;;;;4988310;28;20039;-77
2022/01/30 14:27:14;;;;;;;831.83;455.40;;;;;;;;;;4985061;28;20494;-76
2022/01/30 14:29:41;;;;;;;817.97;447.13;;;;;;;;;;4970285;28;20316;-77
2022/01/30 14:32:11;;;;;;;823.22;452.40;;;;;;;;;;4976269;28;20186;-77
2022/01/30 14:34:37;;;;;;;820.80;448.85;;;;;;;;;;4980974;28;20039;-77
2022/01/30 14:37:04;;;;;;;822.47;450.85;;;;;;;;;;4968626;28;20482;-77
2022/01/30 14:39:34;;;;;;;821.85;449.92;;;;;;;;;;4979191;28;20024;-77
2022/01/30 14:42:00;;;;;;;825.87;458.60;;;;;;;;;;5004190;28;20047;-77
2022/01/30 14:44:27;;;;;;;823.55;458.50;;;;;;;;;;4970710;28;20286;-77
2022/01/30 14:46:53;;;;;;;824.45;453.88;;;;;;;;;;4960040;28;20097;-77
2022/01/30 14:49:19;;;;;;;826.03;463.10;;;;;;;;;;4969207;28;20070;-77
2022/01/30 14:51:45;;;;;;;827.75;456.70;;;;;;;;;;4973215;28;22198;-77